Time;durP1;ratioP1;P1;durP2;ratioP2;P2;SDS_P1;SDS_P2;PMS_P1;PMS_P2;Temp;Humidity;BMP_temperature;BMP_pressure;BME280_temperature;BME280_humidity;BME280_pressure;Samples;Min_cycle;Max_cycle;Signal;HPM_P1;HPM_P2
2024/01/28 00:00:42;;;;;;;79.38;39.22;;;0.70;99.90;;;;;;5078884;28;20051;-78
2024/01/28 00:03:09;;;;;;;72.60;38.80;;;0.70;99.90;;;;;;5086352;28;20660;-77
2024/01/28 00:05:36;;;;;;;67.30;38.72;;;0.60;99.90;;;;;;5080512;28;20039;-77
2024/01/28 00:08:06;;;;;;;68.05;40.60;;;0.50;99.90;;;;;;5077046;28;20052;-78
2024/01/28 00:10:32;;;;;;;71.90;39.50;;;0.50;99.90;;;;;;5084863;28;20044;-77
2024/01/28 00:12:59;;;;;;;88.07;40.22;;;0.40;99.90;;;;;;5085902;28;20047;-77
2024/01/28 00:15:25;;;;;;;70.25;37.75;;;0.40;99.90;;;;;;5082195;28;20156;-77
2024/01/28 00:17:55;;;;;;;80.28;38.15;;;0.40;99.90;;;;;;5084666;28;20051;-78
2024/01/28 00:20:21;;;;;;;75.82;40.35;;;0.40;99.90;;;;;;5086067;28;20401;-77
2024/01/28 00:22:47;;;;;;;71.60;38.10;;;0.40;99.90;;;;;;5075221;28;20033;-78
2024/01/28 00:25:13;;;;;;;66.32;39.33;;;0.40;99.90;;;;;;5071522;28;20131;-78
2024/01/28 00:27:40;;;;;;;69.57;36.25;;;0.40;99.90;;;;;;5079785;28;20044;-77
2024/01/28 00:30:06;;;;;;;76.90;40.30;;;0.40;99.90;;;;;;5078194;28;20074;-78
2024/01/28 00:32:31;;;;;;;77.63;39.90;;;0.40;99.90;;;;;;5085184;28;20169;-78
2024/01/28 00:34:57;;;;;;;67.97;36.95;;;0.30;99.90;;;;;;5085367;28;20134;-78
2024/01/28 00:37:23;;;;;;;66.40;36.42;;;0.30;99.90;;;;;;5074972;28;20056;-78
2024/01/28 00:39:49;;;;;;;71.60;38.05;;;0.30;99.90;;;;;;5079836;28;20398;-78
2024/01/28 00:42:16;;;;;;;77.50;38.42;;;0.30;99.90;;;;;;5081906;28;20082;-78
2024/01/28 00:44:41;;;;;;;79.07;40.20;;;0.30;99.90;;;;;;5083861;28;20090;-79
2024/01/28 00:47:07;;;;;;;64.18;36.83;;;0.20;99.90;;;;;;5084551;28;20087;-78
2024/01/28 00:49:33;;;;;;;64.38;39.78;;;0.20;99.90;;;;;;5076233;28;20044;-78
2024/01/28 00:51:59;;;;;;;65.00;37.13;;;0.20;99.90;;;;;;5080574;28;20055;-78
2024/01/28 00:54:26;;;;;;;77.60;41.28;;;0.20;99.90;;;;;;5068711;28;20151;-78
2024/01/28 00:56:52;;;;;;;80.50;40.70;;;0.20;99.90;;;;;;5081848;28;20052;-78
2024/01/28 00:59:19;;;;;;;73.72;39.92;;;0.10;99.90;;;;;;5081389;28;20813;-78
2024/01/28 01:01:45;;;;;;;80.70;43.55;;;0.20;99.90;;;;;;5086882;28;20032;-78
2024/01/28 01:04:11;;;;;;;91.25;45.92;;;0.10;99.90;;;;;;5083504;28;20052;-78
2024/01/28 01:06:39;;;;;;;80.47;42.25;;;0.10;99.90;;;;;;5088301;28;20044;-78
2024/01/28 01:09:07;;;;;;;66.75;38.22;;;0.10;99.90;;;;;;5084036;28;20048;-78
2024/01/28 01:11:33;;;;;;;76.00;40.73;;;0.00;99.90;;;;;;5080235;28;20048;-78
2024/01/28 01:13:59;;;;;;;73.20;42.97;;;0.00;99.90;;;;;;5081552;28;20167;-78
2024/01/28 01:16:24;;;;;;;74.90;40.05;;;0.00;99.90;;;;;;5075476;28;20136;-78
2024/01/28 01:18:50;;;;;;;72.63;42.78;;;0.00;99.90;;;;;;5087762;28;20052;-78
2024/01/28 01:21:16;;;;;;;64.35;40.28;;;0.00;99.90;;;;;;5083989;28;20497;-78
2024/01/28 01:23:41;;;;;;;68.18;41.55;;;0.00;99.90;;;;;;5088825;28;20052;-79
2024/01/28 01:26:07;;;;;;;77.55;42.30;;;0.00;99.90;;;;;;5087309;28;20401;-78
2024/01/28 01:28:33;;;;;;;65.72;41.88;;;0.00;99.90;;;;;;5084420;28;20044;-78
2024/01/28 01:30:59;;;;;;;84.00;42.55;;;0.00;99.90;;;;;;5085628;28;20052;-78
2024/01/28 01:33:26;;;;;;;75.15;44.75;;;-0.10;99.90;;;;;;5077579;28;20036;-78
2024/01/28 01:35:52;;;;;;;79.85;44.35;;;0.00;99.90;;;;;;5084944;28;20036;-78
2024/01/28 01:38:17;;;;;;;73.10;40.47;;;-0.10;99.90;;;;;;5081645;28;20048;-78
2024/01/28 01:40:43;;;;;;;71.22;41.65;;;-0.10;99.90;;;;;;5087364;28;20048;-78
2024/01/28 01:43:09;;;;;;;64.32;41.95;;;-0.10;99.90;;;;;;5086432;28;20139;-79
2024/01/28 01:45:37;;;;;;;71.57;45.95;;;-0.10;99.90;;;;;;5081714;28;20052;-78
2024/01/28 01:48:07;;;;;;;78.45;44.00;;;-0.10;99.90;;;;;;5086749;28;20048;-78
2024/01/28 01:50:33;;;;;;;83.30;44.92;;;-0.10;99.90;;;;;;5083316;28;20040;-78
2024/01/28 01:53:00;;;;;;;76.57;43.22;;;0.00;99.90;;;;;;5078774;28;20059;-79
2024/01/28 01:55:28;;;;;;;69.90;43.50;;;0.00;99.90;;;;;;5078650;28;20132;-78
2024/01/28 01:57:54;;;;;;;83.43;49.37;;;-0.10;99.90;;;;;;5079488;28;20489;-78
2024/01/28 02:00:21;;;;;;;78.93;45.90;;;-0.10;99.90;;;;;;5088558;28;20750;-78
2024/01/28 02:02:47;;;;;;;77.55;44.65;;;0.00;99.90;;;;;;5076152;28;20041;-78
2024/01/28 02:05:12;;;;;;;75.93;48.53;;;-0.10;99.90;;;;;;5083046;28;20245;-78
2024/01/28 02:07:38;;;;;;;81.68;51.55;;;0.00;99.90;;;;;;5074758;28;20109;-78
2024/01/28 02:10:05;;;;;;;78.63;49.15;;;0.00;99.90;;;;;;5082423;28;20448;-78
2024/01/28 02:12:31;;;;;;;84.50;52.90;;;0.00;99.90;;;;;;5086007;28;20051;-78
2024/01/28 02:15:09;;;;;;;97.03;55.20;;;0.00;99.90;;;;;;5078232;28;20455;-78
2024/01/28 02:17:35;;;;;;;96.73;53.53;;;0.10;99.90;;;;;;5080991;28;20052;-79
2024/01/28 02:20:01;;;;;;;86.70;54.33;;;0.10;99.90;;;;;;5088045;28;20051;-78
2024/01/28 02:22:27;;;;;;;90.93;53.33;;;0.10;99.90;;;;;;5070257;28;20058;-78
2024/01/28 02:24:52;;;;;;;113.28;58.97;;;0.10;99.90;;;;;;5080210;28;20409;-78
2024/01/28 02:27:19;;;;;;;97.85;58.40;;;0.10;99.90;;;;;;5087945;28;20044;-79
2024/01/28 02:29:45;;;;;;;97.07;55.05;;;0.10;99.90;;;;;;5081070;28;20080;-78
2024/01/28 02:32:16;;;;;;;101.80;57.70;;;0.20;99.90;;;;;;5084315;28;20136;-78
2024/01/28 02:34:41;;;;;;;92.63;56.40;;;0.20;99.90;;;;;;5085889;28;20093;-78
2024/01/28 02:37:08;;;;;;;90.72;59.03;;;0.20;99.90;;;;;;5086687;28;20514;-79
2024/01/28 02:39:33;;;;;;;104.50;57.15;;;0.30;99.90;;;;;;5087857;28;20056;-78
2024/01/28 02:42:00;;;;;;;99.03;57.40;;;0.30;99.90;;;;;;5069971;28;20142;-78
2024/01/28 02:44:26;;;;;;;118.60;57.58;;;0.30;99.90;;;;;;5087620;28;20040;-79
2024/01/28 02:46:53;;;;;;;109.22;57.47;;;0.30;99.90;;;;;;5086073;28;20055;-78
2024/01/28 02:49:21;;;;;;;95.07;56.60;;;0.30;99.90;;;;;;5077315;28;20260;-79
2024/01/28 02:51:47;;;;;;;97.00;58.70;;;0.40;99.90;;;;;;5075838;28;20085;-78
2024/01/28 02:54:12;;;;;;;90.25;53.67;;;0.40;99.90;;;;;;5061869;28;20060;-79
2024/01/28 02:56:38;;;;;;;96.75;58.88;;;0.40;99.90;;;;;;5087078;28;20048;-79
2024/01/28 02:59:04;;;;;;;98.55;57.90;;;0.40;99.90;;;;;;5082407;28;20081;-78
2024/01/28 03:01:30;;;;;;;88.93;55.90;;;0.40;99.90;;;;;;5072138;28;20052;-79
2024/01/28 03:03:56;;;;;;;95.28;57.60;;;0.50;99.90;;;;;;5060815;28;20062;-79
2024/01/28 03:06:21;;;;;;;94.95;56.63;;;0.50;99.90;;;;;;5066631;28;20501;-79
2024/01/28 03:08:47;;;;;;;89.93;54.78;;;0.50;99.90;;;;;;5075819;28;20097;-80
2024/01/28 03:11:13;;;;;;;95.05;54.08;;;0.60;99.90;;;;;;5058921;28;20098;-78
2024/01/28 03:13:38;;;;;;;93.07;54.10;;;0.60;99.90;;;;;;5070675;28;20040;-79
2024/01/28 03:16:12;;;;;;;90.60;54.92;;;0.60;99.90;;;;;;5081330;28;20044;-79
2024/01/28 03:18:45;;;;;;;86.43;57.45;;;0.60;99.90;;;;;;5090819;28;20040;-79
2024/01/28 03:21:11;;;;;;;92.97;55.10;;;0.60;99.90;;;;;;5091394;28;20094;-78
2024/01/28 03:23:37;;;;;;;98.10;61.00;;;0.60;99.90;;;;;;5086481;28;20066;-79
2024/01/28 03:26:02;;;;;;;97.32;59.15;;;0.60;99.90;;;;;;5075494;28;20044;-79
2024/01/28 03:28:28;;;;;;;98.63;59.63;;;0.60;99.90;;;;;;5086278;28;20055;-79
2024/01/28 03:30:53;;;;;;;94.95;59.67;;;0.60;99.90;;;;;;5078945;28;20454;-79
2024/01/28 03:33:20;;;;;;;102.57;61.13;;;0.60;99.90;;;;;;5078937;28;20048;-79
2024/01/28 03:35:46;;;;;;;98.80;57.80;;;0.60;99.90;;;;;;5077654;28;20094;-79
2024/01/28 03:38:12;;;;;;;101.10;59.10;;;0.60;99.90;;;;;;5086698;28;20048;-79
2024/01/28 03:40:38;;;;;;;107.15;58.13;;;0.60;99.90;;;;;;5086527;28;20058;-79
2024/01/28 03:43:03;;;;;;;94.80;59.58;;;0.60;99.90;;;;;;5084765;28;20040;-79
2024/01/28 03:45:29;;;;;;;112.05;59.28;;;0.60;99.90;;;;;;5086413;28;20097;-79
2024/01/28 03:47:55;;;;;;;98.85;59.70;;;0.60;99.90;;;;;;5083814;28;20500;-79
2024/01/28 03:50:21;;;;;;;96.72;57.05;;;0.60;99.90;;;;;;5076193;28;20045;-79
2024/01/28 03:52:47;;;;;;;97.32;60.90;;;0.50;99.90;;;;;;5075566;28;20044;-79
2024/01/28 03:55:13;;;;;;;95.63;59.10;;;0.60;99.90;;;;;;5082773;28;20058;-79
2024/01/28 03:57:39;;;;;;;98.45;59.13;;;0.60;99.90;;;;;;5086287;28;20051;-79
2024/01/28 04:00:06;;;;;;;91.85;56.33;;;0.60;99.90;;;;;;5079145;28;20052;-79
2024/01/28 04:02:32;;;;;;;96.32;55.15;;;0.50;99.90;;;;;;5086328;28;20055;-79
2024/01/28 04:04:58;;;;;;;94.15;54.90;;;0.60;99.90;;;;;;5084672;28;20044;-79
2024/01/28 04:07:23;;;;;;;100.80;59.30;;;0.50;99.90;;;;;;5081097;28;20052;-79
2024/01/28 04:09:49;;;;;;;100.47;56.63;;;0.50;99.90;;;;;;5080231;28;20067;-79
2024/01/28 04:12:14;;;;;;;92.70;56.80;;;0.50;99.90;;;;;;5080938;28;20048;-80
2024/01/28 04:14:40;;;;;;;91.78;55.85;;;0.40;99.90;;;;;;5085932;28;20052;-79
2024/01/28 04:17:06;;;;;;;87.25;56.50;;;0.40;99.90;;;;;;5076133;28;20048;-80
2024/01/28 04:19:31;;;;;;;86.07;56.33;;;0.40;99.90;;;;;;5088277;28;20485;-79
2024/01/28 04:21:57;;;;;;;94.68;54.20;;;0.30;99.90;;;;;;5084927;28;20089;-80
2024/01/28 04:24:22;;;;;;;95.90;53.10;;;0.30;99.90;;;;;;5084150;28;20044;-79
2024/01/28 04:26:49;;;;;;;82.28;54.25;;;0.30;99.90;;;;;;5085489;28;20059;-79
2024/01/28 04:29:15;;;;;;;93.97;54.50;;;0.30;99.90;;;;;;5080795;28;20052;-79
2024/01/28 04:31:42;;;;;;;74.80;51.60;;;0.30;99.90;;;;;;5072795;28;20075;-79
2024/01/28 04:34:08;;;;;;;79.45;53.67;;;0.20;99.90;;;;;;5085501;28;20052;-79
2024/01/28 04:36:34;;;;;;;77.80;52.75;;;0.20;99.90;;;;;;5079204;28;20051;-78
2024/01/28 04:38:59;;;;;;;80.82;51.50;;;0.20;99.90;;;;;;5090574;28;20546;-79
2024/01/28 04:41:25;;;;;;;84.85;51.40;;;0.10;99.90;;;;;;5065814;28;20048;-79
2024/01/28 04:43:51;;;;;;;88.70;55.53;;;0.10;99.90;;;;;;5085425;28;20050;-79
2024/01/28 04:46:16;;;;;;;85.50;54.13;;;0.10;99.90;;;;;;5074132;28;20052;-79
2024/01/28 04:48:42;;;;;;;84.65;52.33;;;0.00;99.90;;;;;;5079348;28;20485;-79
2024/01/28 04:51:08;;;;;;;85.80;54.67;;;0.00;99.90;;;;;;5073079;28;20041;-79
2024/01/28 04:53:33;;;;;;;84.53;53.22;;;0.00;99.90;;;;;;5077757;28;20127;-79
2024/01/28 04:56:00;;;;;;;106.35;56.10;;;0.00;99.90;;;;;;5071708;28;20071;-79
2024/01/28 04:58:25;;;;;;;78.40;53.85;;;-0.10;99.90;;;;;;5085855;28;20056;-79
2024/01/28 05:00:51;;;;;;;95.20;53.45;;;-0.20;99.90;;;;;;5075479;28;20052;-79
2024/01/28 05:03:16;;;;;;;87.90;57.83;;;-0.20;99.90;;;;;;5090424;28;20181;-79
2024/01/28 05:05:42;;;;;;;86.03;53.25;;;-0.30;99.90;;;;;;5071760;28;20918;-79
2024/01/28 05:08:09;;;;;;;93.28;54.42;;;-0.30;99.90;;;;;;5077855;28;20044;-79
2024/01/28 05:10:34;;;;;;;87.72;52.65;;;-0.30;99.90;;;;;;5080642;28;20102;-79
2024/01/28 05:13:00;;;;;;;82.30;54.38;;;-0.40;99.90;;;;;;5067984;28;20076;-79
2024/01/28 05:15:26;;;;;;;89.18;52.75;;;-0.40;99.90;;;;;;5058099;28;20043;-79
2024/01/28 05:17:51;;;;;;;82.72;53.75;;;-0.40;99.90;;;;;;5071743;28;20440;-79
2024/01/28 05:20:17;;;;;;;26.67;11.98;;;-0.30;99.90;;;;;;5085028;28;20047;-79
2024/01/28 05:22:43;;;;;;;87.32;52.53;;;-0.30;99.90;;;;;;5076374;28;20052;-79
2024/01/28 05:25:09;;;;;;;83.93;52.30;;;-0.30;99.90;;;;;;5082754;28;20094;-78
2024/01/28 05:27:36;;;;;;;90.45;54.65;;;-0.30;99.90;;;;;;5084765;28;20044;-79
2024/01/28 05:30:03;;;;;;;75.47;50.70;;;-0.20;99.90;;;;;;5084979;28;20051;-78
2024/01/28 05:32:29;;;;;;;97.82;52.75;;;-0.20;99.90;;;;;;5075798;28;20048;-78
2024/01/28 05:35:01;;;;;;;99.28;50.25;;;-0.20;99.90;;;;;;5077868;28;20123;-79
2024/01/28 05:37:27;;;;;;;87.32;51.72;;;-0.20;99.90;;;;;;5071941;28;20481;-80
2024/01/28 05:39:52;;;;;;;93.78;52.00;;;-0.20;99.90;;;;;;5076984;28;20074;-78
2024/01/28 05:42:18;;;;;;;73.32;51.88;;;-0.20;99.90;;;;;;5076048;28;20489;-79
2024/01/28 05:44:43;;;;;;;81.60;51.08;;;-0.20;99.90;;;;;;5086154;28;20173;-78
2024/01/28 05:47:09;;;;;;;81.63;50.05;;;-0.30;99.90;;;;;;5085822;28;20160;-79
2024/01/28 05:49:35;;;;;;;73.93;49.42;;;-0.30;99.90;;;;;;5086142;28;20079;-78
2024/01/28 05:52:00;;;;;;;69.43;47.75;;;-0.40;99.90;;;;;;5061838;28;20863;-78
2024/01/28 05:54:26;;;;;;;83.32;50.88;;;-0.40;99.90;;;;;;5094746;28;20106;-79
2024/01/28 05:56:51;;;;;;;75.32;50.35;;;-0.40;99.90;;;;;;5087992;28;20052;-78
2024/01/28 05:59:18;;;;;;;77.65;49.85;;;-0.50;99.90;;;;;;5091606;28;20050;-79
2024/01/28 06:01:44;;;;;;;75.68;52.28;;;-0.50;99.90;;;;;;5084573;28;20044;-79
2024/01/28 06:04:10;;;;;;;79.80;51.65;;;-0.60;99.90;;;;;;5085632;28;20071;-79
2024/01/28 06:06:36;;;;;;;86.80;52.55;;;-0.60;99.90;;;;;;5082759;28;20059;-79
2024/01/28 06:09:01;;;;;;;86.57;51.80;;;-0.60;99.90;;;;;;5086422;28;20101;-79
2024/01/28 06:11:28;;;;;;;75.13;53.25;;;-0.60;99.90;;;;;;5087972;28;20044;-78
2024/01/28 06:13:53;;;;;;;69.32;48.13;;;-0.70;99.90;;;;;;5083616;28;21097;-79
2024/01/28 06:16:19;;;;;;;69.82;49.55;;;-0.60;99.90;;;;;;5087791;28;20093;-78
2024/01/28 06:18:44;;;;;;;81.03;48.63;;;-0.60;99.90;;;;;;5087896;28;20040;-78
2024/01/28 06:21:10;;;;;;;74.30;50.22;;;-0.70;99.90;;;;;;5077424;28;20515;-78
2024/01/28 06:23:37;;;;;;;86.28;49.20;;;-0.70;99.90;;;;;;5078719;28;20745;-78
2024/01/28 06:26:03;;;;;;;83.28;49.00;;;-0.70;99.90;;;;;;5074143;28;20153;-78
2024/01/28 06:28:28;;;;;;;73.30;49.67;;;-0.70;99.90;;;;;;5080890;28;20040;-79
2024/01/28 06:30:54;;;;;;;74.70;49.28;;;-0.70;99.90;;;;;;5075488;28;20052;-79
2024/01/28 06:33:20;;;;;;;88.93;49.95;;;-0.70;99.90;;;;;;5084813;28;20059;-79
2024/01/28 06:35:46;;;;;;;77.72;49.72;;;-0.70;99.90;;;;;;5086298;28;20598;-79
2024/01/28 06:38:11;;;;;;;72.38;48.67;;;-0.70;99.90;;;;;;5062387;28;20073;-79
2024/01/28 06:40:37;;;;;;;70.50;48.30;;;-0.70;99.90;;;;;;5085602;28;20638;-78
2024/01/28 06:43:03;;;;;;;62.50;47.08;;;-0.70;99.90;;;;;;5083844;28;20109;-79
2024/01/28 06:45:28;;;;;;;81.18;47.50;;;-0.70;99.90;;;;;;5084285;28;20032;-79
2024/01/28 06:47:55;;;;;;;73.68;47.03;;;-0.70;99.90;;;;;;5085508;28;20123;-79
2024/01/28 06:50:21;;;;;;;75.60;48.78;;;-0.80;99.90;;;;;;5079640;28;20090;-79
2024/01/28 06:52:48;;;;;;;75.32;44.67;;;-0.80;99.90;;;;;;5073904;28;20506;-79
2024/01/28 06:55:14;;;;;;;74.20;46.58;;;-0.80;99.90;;;;;;5075541;28;20064;-79
2024/01/28 06:57:39;;;;;;;77.65;48.15;;;-0.80;99.90;;;;;;5084409;28;20044;-79
2024/01/28 07:00:10;;;;;;;78.95;47.55;;;-0.80;99.90;;;;;;5084447;28;20706;-79
2024/01/28 07:02:36;;;;;;;65.05;45.60;;;-0.80;99.90;;;;;;5083377;28;20067;-79
2024/01/28 07:05:02;;;;;;;78.85;44.80;;;-0.70;99.90;;;;;;5087524;28;20078;-79
2024/01/28 07:07:28;;;;;;;70.80;44.28;;;-0.70;99.90;;;;;;5078292;28;20072;-78
2024/01/28 07:09:54;;;;;;;76.60;43.83;;;-0.60;99.90;;;;;;5083223;28;20127;-79
2024/01/28 07:12:19;;;;;;;72.70;45.05;;;-0.60;99.90;;;;;;5079016;28;20485;-79
2024/01/28 07:14:45;;;;;;;67.80;43.60;;;-0.60;99.90;;;;;;5081354;28;20040;-78
2024/01/28 07:17:11;;;;;;;71.18;45.90;;;-0.60;99.90;;;;;;5086340;28;20794;-79
2024/01/28 07:19:36;;;;;;;72.85;46.50;;;-0.60;99.90;;;;;;5077924;28;20055;-78
2024/01/28 07:22:02;;;;;;;70.45;44.95;;;-0.60;99.90;;;;;;5078642;28;20044;-79
2024/01/28 07:24:27;;;;;;;73.40;44.22;;;-0.60;99.90;;;;;;5087151;28;20048;-79
2024/01/28 07:26:53;;;;;;;71.45;44.70;;;-0.50;99.90;;;;;;5075461;28;20890;-79
2024/01/28 07:29:19;;;;;;;72.28;46.10;;;-0.50;99.90;;;;;;5086692;28;20079;-78
2024/01/28 07:31:44;;;;;;;72.60;45.08;;;-0.50;99.90;;;;;;5079581;28;20079;-79
2024/01/28 07:34:10;;;;;;;81.97;45.55;;;-0.50;99.90;;;;;;5084568;28;20055;-79
2024/01/28 07:36:36;;;;;;;72.82;44.65;;;-0.60;99.90;;;;;;5089045;28;20052;-78
2024/01/28 07:39:04;;;;;;;70.00;43.67;;;-0.50;99.90;;;;;;5079844;28;20042;-78
2024/01/28 07:41:34;;;;;;;72.85;44.13;;;-0.50;99.90;;;;;;5086255;28;20040;-79
2024/01/28 07:44:00;;;;;;;67.03;44.83;;;-0.50;99.90;;;;;;5085899;28;20516;-78
2024/01/28 07:46:26;;;;;;;70.03;43.30;;;-0.40;99.90;;;;;;5084057;28;20051;-78
2024/01/28 07:48:51;;;;;;;61.45;41.70;;;-0.40;99.90;;;;;;5080375;28;20048;-79
2024/01/28 07:51:17;;;;;;;62.63;40.75;;;-0.40;99.90;;;;;;5076583;28;20051;-78
2024/01/28 07:53:42;;;;;;;72.82;42.78;;;-0.30;99.90;;;;;;5077858;28;20214;-79
2024/01/28 07:56:08;;;;;;;68.60;40.13;;;-0.30;99.90;;;;;;5082960;28;20052;-78
2024/01/28 07:58:34;;;;;;;75.97;39.95;;;-0.30;99.90;;;;;;5082165;28;20037;-79
2024/01/28 08:00:59;;;;;;;55.50;41.40;;;-0.30;99.90;;;;;;5085401;28;20052;-79
2024/01/28 08:03:25;;;;;;;62.08;40.35;;;-0.20;99.90;;;;;;5085894;28;20043;-79
2024/01/28 08:05:50;;;;;;;67.65;37.92;;;-0.20;99.90;;;;;;5081215;28;20051;-79
2024/01/28 08:08:17;;;;;;;59.53;36.00;;;-0.20;99.90;;;;;;5080149;28;20036;-79
2024/01/28 08:10:43;;;;;;;62.63;36.72;;;-0.10;99.90;;;;;;5082167;28;20131;-79
2024/01/28 08:13:09;;;;;;;68.40;36.65;;;-0.10;99.90;;;;;;5077908;28;20145;-79
2024/01/28 08:15:36;;;;;;;72.97;36.72;;;-0.10;99.90;;;;;;5071976;28;20230;-79
2024/01/28 08:18:01;;;;;;;60.33;37.00;;;0.00;99.90;;;;;;5071011;28;20052;-78
2024/01/28 08:20:27;;;;;;;59.95;35.95;;;0.00;99.90;;;;;;5073534;28;20401;-78
2024/01/28 08:22:53;;;;;;;58.63;34.88;;;0.00;99.90;;;;;;5068632;28;20052;-78
2024/01/28 08:25:18;;;;;;;53.90;33.03;;;0.00;99.90;;;;;;5072317;28;20155;-78
2024/01/28 08:27:44;;;;;;;55.22;33.92;;;0.10;99.90;;;;;;5076765;28;20047;-78
2024/01/28 08:30:11;;;;;;;50.15;33.67;;;0.10;99.90;;;;;;5069509;28;20144;-77
2024/01/28 08:32:37;;;;;;;58.15;34.47;;;0.10;99.90;;;;;;5080709;28;20032;-78
2024/01/28 08:35:03;;;;;;;60.53;33.13;;;0.20;99.90;;;;;;5081718;28;20409;-78
2024/01/28 08:37:29;;;;;;;57.45;34.03;;;0.20;99.90;;;;;;5074853;28;20488;-77
2024/01/28 08:39:55;;;;;;;49.75;32.22;;;0.30;99.90;;;;;;5077906;28;20048;-77
2024/01/28 08:42:21;;;;;;;54.35;32.33;;;0.30;99.90;;;;;;5085139;28;20131;-77
2024/01/28 08:44:47;;;;;;;57.40;31.63;;;0.40;99.90;;;;;;5075876;28;20565;-78
2024/01/28 08:47:13;;;;;;;50.22;31.98;;;0.50;99.90;;;;;;5081891;28;20257;-77
2024/01/28 08:49:39;;;;;;;49.90;30.42;;;0.50;99.90;;;;;;5074041;28;20052;-78
2024/01/28 08:52:05;;;;;;;56.58;31.70;;;0.60;99.90;;;;;;5082323;28;20044;-80
2024/01/28 08:54:31;;;;;;;54.10;30.27;;;0.60;99.90;;;;;;5078745;28;20596;-79
2024/01/28 08:56:57;;;;;;;49.60;29.33;;;0.70;99.90;;;;;;5081468;28;20060;-79
2024/01/28 08:59:22;;;;;;;49.22;29.13;;;0.70;99.90;;;;;;5083657;28;20032;-78
2024/01/28 09:01:49;;;;;;;50.45;31.02;;;0.80;99.90;;;;;;5084345;28;20040;-78
2024/01/28 09:04:15;;;;;;;49.08;29.65;;;0.80;99.90;;;;;;5081337;28;20132;-78
2024/01/28 09:06:41;;;;;;;43.28;29.77;;;0.80;99.90;;;;;;5082830;28;20127;-79
2024/01/28 09:09:08;;;;;;;53.08;28.65;;;0.90;99.90;;;;;;5084489;28;20615;-79
2024/01/28 09:11:37;;;;;;;50.88;28.95;;;1.00;99.90;;;;;;5079356;28;20052;-78
2024/01/28 09:14:04;;;;;;;46.53;28.40;;;1.10;99.90;;;;;;5071712;28;20080;-78
2024/01/28 09:16:29;;;;;;;58.53;30.10;;;1.10;99.90;;;;;;5075069;28;20135;-77
2024/01/28 09:18:55;;;;;;;54.35;29.45;;;1.20;99.90;;;;;;5077090;28;20147;-78
2024/01/28 09:21:21;;;;;;;48.65;31.35;;;1.20;99.90;;;;;;5083967;28;20048;-77
2024/01/28 09:23:47;;;;;;;46.08;28.05;;;1.30;99.90;;;;;;5087005;28;20119;-77
2024/01/28 09:26:13;;;;;;;55.22;28.63;;;1.30;99.90;;;;;;5090288;28;20060;-76
2024/01/28 09:28:39;;;;;;;47.60;28.23;;;1.40;99.90;;;;;;5085428;28;20129;-76
2024/01/28 09:31:08;;;;;;;50.28;27.20;;;1.40;99.90;;;;;;5080504;28;20075;-77
2024/01/28 09:33:34;;;;;;;50.42;28.45;;;1.40;99.90;;;;;;5081807;28;20059;-77
2024/01/28 09:35:59;;;;;;;48.15;28.65;;;1.40;99.90;;;;;;5080688;28;20044;-77
2024/01/28 09:38:25;;;;;;;55.53;29.02;;;1.40;99.90;;;;;;5089839;28;20252;-77
2024/01/28 09:40:52;;;;;;;52.70;28.17;;;1.50;99.90;;;;;;5089279;28;20047;-77
2024/01/28 09:43:31;;;;;;;48.65;27.33;;;1.60;99.90;;;;;;5086483;28;20040;-76
2024/01/28 09:45:57;;;;;;;44.75;27.55;;;1.80;99.90;;;;;;5081697;28;20488;-76
2024/01/28 09:48:23;;;;;;;43.63;25.23;;;1.90;99.90;;;;;;5069906;28;20037;-76
2024/01/28 09:50:49;;;;;;;45.33;24.67;;;2.00;99.90;;;;;;5089517;28;20055;-75
2024/01/28 09:53:15;;;;;;;46.65;25.10;;;2.20;99.90;;;;;;5084118;28;20044;-75
2024/01/28 09:55:41;;;;;;;45.42;25.13;;;2.30;99.90;;;;;;5089523;28;20097;-76
2024/01/28 09:58:08;;;;;;;47.95;25.38;;;2.50;99.90;;;;;;5084698;28;20056;-75
2024/01/28 10:00:37;;;;;;;45.10;24.42;;;2.60;99.90;;;;;;5081722;28;20052;-76
2024/01/28 10:03:03;;;;;;;48.58;25.27;;;2.80;99.90;;;;;;5083492;28;20088;-76
2024/01/28 10:05:30;;;;;;;39.63;23.77;;;2.90;99.90;;;;;;5085048;28;20043;-76
2024/01/28 10:08:01;;;;;;;42.10;25.08;;;3.00;99.90;;;;;;5083602;28;20760;-76
2024/01/28 10:10:27;;;;;;;45.58;23.95;;;3.10;99.90;;;;;;5088884;28;20043;-76
2024/01/28 10:12:52;;;;;;;40.15;22.63;;;3.20;99.90;;;;;;5089600;28;20111;-76
2024/01/28 10:15:23;;;;;;;42.78;23.52;;;3.30;99.90;;;;;;5085799;28;20048;-77
2024/01/28 10:17:50;;;;;;;39.83;22.83;;;3.50;99.90;;;;;;5090383;28;20457;-76
2024/01/28 10:20:23;;;;;;;41.97;23.08;;;3.60;99.90;;;;;;5087020;28;20044;-76
2024/01/28 10:22:49;;;;;;;50.22;24.33;;;3.70;99.90;;;;;;5078606;28;20040;-76
2024/01/28 10:25:16;;;;;;;45.72;22.65;;;3.80;99.90;;;;;;5088001;28;20051;-76
2024/01/28 10:27:46;;;;;;;40.83;22.50;;;4.00;99.90;;;;;;5081263;28;20501;-77
2024/01/28 10:30:13;;;;;;;43.30;23.13;;;4.20;99.90;;;;;;5083716;28;20037;-77
2024/01/28 10:32:42;;;;;;;42.03;22.83;;;4.40;99.90;;;;;;5087097;28;20092;-77
2024/01/28 10:35:11;;;;;;;46.65;22.80;;;4.50;99.90;;;;;;5087569;28;20044;-77
2024/01/28 10:37:38;;;;;;;37.67;20.73;;;4.70;99.90;;;;;;5083899;28;20119;-77
2024/01/28 10:40:07;;;;;;;35.80;20.70;;;4.80;99.90;;;;;;5061780;28;20052;-77
2024/01/28 10:42:41;;;;;;;36.58;20.35;;;5.00;99.90;;;;;;5077579;28;20048;-77
2024/01/28 10:45:12;;;;;;;32.17;19.02;;;5.10;99.90;;;;;;5078540;28;20040;-77
2024/01/28 10:47:44;;;;;;;35.70;20.42;;;5.30;99.90;;;;;;5085026;28;20043;-77
2024/01/28 10:50:14;;;;;;;45.50;21.17;;;5.40;99.90;;;;;;5085781;28;20047;-77
2024/01/28 10:52:41;;;;;;;34.40;20.42;;;5.50;99.90;;;;;;5085976;28;20055;-77
2024/01/28 10:55:08;;;;;;;37.83;18.50;;;5.60;99.90;;;;;;5080493;28;20051;-77
2024/01/28 10:57:36;;;;;;;35.65;20.23;;;5.70;99.90;;;;;;5070368;28;20143;-77
2024/01/28 11:00:06;;;;;;;41.77;19.87;;;5.80;99.90;;;;;;5084306;28;20048;-77
2024/01/28 11:02:34;;;;;;;36.72;19.60;;;5.90;99.90;;;;;;5077351;28;20806;-77
2024/01/28 11:05:00;;;;;;;37.17;18.55;;;5.90;99.90;;;;;;5081447;28;20089;-77
2024/01/28 11:07:27;;;;;;;36.13;19.27;;;6.10;99.90;;;;;;5076389;28;20044;-77
2024/01/28 11:09:53;;;;;;;39.13;19.70;;;6.10;99.90;;;;;;5081424;28;20055;-77
2024/01/28 11:12:20;;;;;;;38.63;19.52;;;6.20;99.90;;;;;;5081081;28;20047;-77
2024/01/28 11:14:46;;;;;;;39.33;18.80;;;6.30;99.90;;;;;;5080048;28;20052;-79
2024/01/28 11:17:16;;;;;;;32.17;19.92;;;6.40;99.90;;;;;;5081703;28;20059;-78
2024/01/28 11:19:42;;;;;;;33.00;17.92;;;6.50;99.90;;;;;;5076884;28;20565;-77
2024/01/28 11:22:15;;;;;;;35.67;17.55;;;6.60;99.90;;;;;;5078310;28;20036;-77
2024/01/28 11:25:08;;;;;;;30.92;18.05;;;6.70;99.90;;;;;;5078553;28;20583;-77
2024/01/28 11:27:37;;;;;;;39.42;16.75;;;6.80;99.90;;;;;;5083700;27;20123;-77
2024/01/28 11:30:03;;;;;;;37.75;17.60;;;6.90;99.90;;;;;;5066683;28;20116;-78
2024/01/28 11:32:35;;;;;;;33.60;16.80;;;6.90;99.90;;;;;;5084721;28;20047;-78
2024/01/28 11:35:01;;;;;;;31.90;16.38;;;7.00;99.90;;;;;;5085793;28;20044;-77
2024/01/28 11:37:28;;;;;;;34.30;17.42;;;7.10;99.90;;;;;;5079579;28;20054;-77
2024/01/28 11:40:02;;;;;;;39.60;16.98;;;7.20;99.90;;;;;;5082261;28;20056;-77
2024/01/28 11:42:28;;;;;;;30.67;15.73;;;7.30;99.90;;;;;;5080270;28;21771;-77
2024/01/28 11:44:54;;;;;;;31.05;15.18;;;7.30;99.90;;;;;;5073634;28;20058;-78
2024/01/28 11:47:19;;;;;;;40.50;17.83;;;7.40;99.90;;;;;;5074579;28;20048;-78
2024/01/28 11:49:45;;;;;;;35.33;17.33;;;7.40;99.90;;;;;;5078923;28;20374;-78
2024/01/28 11:52:11;;;;;;;30.90;15.93;;;7.50;99.90;;;;;;5085480;28;20048;-78
2024/01/28 11:54:37;;;;;;;29.55;15.52;;;7.60;99.90;;;;;;5080303;28;20056;-77
2024/01/28 11:57:05;;;;;;;45.78;16.50;;;7.70;99.90;;;;;;5082774;28;20056;-78
2024/01/28 11:59:33;;;;;;;33.55;15.43;;;7.80;99.90;;;;;;5079662;28;20730;-78
2024/01/28 12:02:00;;;;;;;32.03;16.45;;;7.80;99.90;;;;;;5084612;28;20139;-81
2024/01/28 12:04:25;;;;;;;34.22;16.20;;;7.90;99.90;;;;;;5072732;28;20048;-77
2024/01/28 12:06:51;;;;;;;37.38;15.45;;;8.00;99.90;;;;;;5076554;28;20387;-78
2024/01/28 12:09:17;;;;;;;31.45;14.65;;;8.00;99.90;;;;;;5081302;28;20085;-78
2024/01/28 12:11:42;;;;;;;29.48;14.82;;;8.10;99.90;;;;;;5086488;28;20039;-77
2024/01/28 12:14:08;;;;;;;26.42;15.43;;;8.20;99.90;;;;;;5084168;28;20059;-77
2024/01/28 12:16:35;;;;;;;29.42;15.57;;;8.20;99.90;;;;;;5089904;28;20561;-77
2024/01/28 12:19:01;;;;;;;28.25;15.15;;;8.30;99.90;;;;;;5083576;28;20055;-77
2024/01/28 12:21:30;;;;;;;28.52;13.43;;;8.40;99.90;;;;;;5074743;28;20052;-77
2024/01/28 12:23:59;;;;;;;36.63;12.73;;;8.40;99.90;;;;;;5079305;28;20040;-77
2024/01/28 12:26:26;;;;;;;27.20;15.02;;;8.50;99.90;;;;;;5068662;28;20051;-77
2024/01/28 12:28:52;;;;;;;23.67;14.82;;;8.60;99.90;;;;;;5086697;28;20135;-78